Peshawar Weather



Peshawar's Current Weather

Temprature 18o haze

haze

Rain: 0 %

Min Temprature18o
Max Temprature18o
Humidity63
Wind Speed2.1 m/h
Sun Rise05:50:04
Sun Set18:39:55
Current Time: 09-Apr-2020 01:48:29
Lat/Lon: 34.01, 71.58




Peshawar's Geo Location



Peshawar's Weather Forecast

Time Overall Temp Min Temp Max Temp Humidity Wind Speed Rain
09-Apr-2020 (Thu)
02:00:00 clear sky 17.320 17.320 20.590 45 0.93 m/h 0 %
05:00:00 scattered clouds 17.290 17.290 19.740 48 0.65 m/h 0 %
08:00:00 overcast clouds 19.820 19.820 21.460 43 1.32 m/h 0 %
11:00:00 overcast clouds 24.750 24.750 25.570 33 1.86 m/h 0 %
14:00:00 overcast clouds 28.730 28.730 28.730 26 2.8 m/h 0 %
17:00:00 light rain 20.810 20.810 20.810 58 7.21 m/h 130 %
20:00:00 light rain 18.920 18.920 18.920 56 1.12 m/h 45 %
23:00:00 light rain 18.130 18.130 18.130 60 0.82 m/h 73 %
10-Apr-2020 (Fri)
02:00:00 few clouds 17.720 17.720 17.720 60 0.9 m/h 0 %
05:00:00 few clouds 17.540 17.540 17.540 56 0.42 m/h 0 %
08:00:00 broken clouds 20.460 20.460 20.460 45 1.18 m/h 0 %
11:00:00 scattered clouds 25.850 25.850 25.850 31 1.61 m/h 0 %
14:00:00 clear sky 29.040 29.040 29.040 23 2.67 m/h 0 %
17:00:00 few clouds 29.320 29.320 29.320 20 2.08 m/h 0 %
20:00:00 clear sky 25.440 25.440 25.440 26 0.41 m/h 0 %
23:00:00 scattered clouds 23.640 23.640 23.640 29 0.75 m/h 0 %
11-Apr-2020 (Sat)
02:00:00 overcast clouds 22.040 22.040 22.040 33 0.68 m/h 0 %
05:00:00 overcast clouds 20.340 20.340 20.340 38 0.79 m/h 0 %
08:00:00 overcast clouds 23.600 23.600 23.600 32 0.53 m/h 0 %
11:00:00 overcast clouds 28.010 28.010 28.010 23 1.57 m/h 0 %
14:00:00 overcast clouds 31.360 31.360 31.360 18 0.61 m/h 0 %
17:00:00 broken clouds 31.680 31.680 31.680 16 1.05 m/h 0 %
20:00:00 overcast clouds 27.560 27.560 27.560 23 0.24 m/h 0 %
23:00:00 overcast clouds 25.120 25.120 25.120 27 0.5 m/h 0 %
12-Apr-2020 (Sun)
02:00:00 few clouds 23.100 23.100 23.100 32 0.96 m/h 0 %
05:00:00 scattered clouds 21.280 21.280 21.280 37 0.61 m/h 0 %
08:00:00 clear sky 24.770 24.770 24.770 29 0.58 m/h 0 %
11:00:00 few clouds 29.670 29.670 29.670 22 1.15 m/h 0 %
14:00:00 scattered clouds 33.660 33.660 33.660 16 1.17 m/h 0 %
17:00:00 broken clouds 33.790 33.790 33.790 16 1.69 m/h 0 %
20:00:00 overcast clouds 28.720 28.720 28.720 25 0.96 m/h 0 %
23:00:00 overcast clouds 25.990 25.990 25.990 31 1.43 m/h 0 %
13-Apr-2020 (Mon)
02:00:00 overcast clouds 24.490 24.490 24.490 36 0.75 m/h 0 %
05:00:00 overcast clouds 23.550 23.550 23.550 39 0.52 m/h 0 %
08:00:00 overcast clouds 26.230 26.230 26.230 33 1.17 m/h 0 %
11:00:00 overcast clouds 31.010 31.010 31.010 24 1.02 m/h 0 %
14:00:00 clear sky 34.930 34.930 34.930 17 1.57 m/h 0 %
17:00:00 light rain 35.170 35.170 35.170 18 2.78 m/h 16 %
20:00:00 light rain 28.680 28.680 28.680 33 2.72 m/h 83 %
23:00:00 light rain 26.280 26.280 26.280 38 2.09 m/h 36 %

Famous Cities (61)